createdAt,value
2023-01-02T00:01:09.313Z,100927.81
2023-01-02T00:03:37.365Z,100929.38
2023-01-02T00:06:06.703Z,100921.72
2023-01-02T00:08:34.729Z,100934.59
2023-01-02T00:11:02.508Z,100927.66
2023-01-02T00:13:30.559Z,100927.47
2023-01-02T00:15:58.297Z,100929.19
2023-01-02T00:18:26.292Z,100924.84
2023-01-02T00:20:53.961Z,100927.47
2023-01-02T00:23:21.853Z,100924.75
2023-01-02T00:25:50.059Z,100915.75
2023-01-02T00:28:17.947Z,100921.72
2023-01-02T00:30:45.604Z,100908.78
2023-01-02T00:33:13.534Z,100910.41
2023-01-02T00:35:41.316Z,100908.59
2023-01-02T00:38:09.527Z,100912.94
2023-01-02T00:40:37.260Z,100924.19
2023-01-02T00:43:05.405Z,100923.38
2023-01-02T00:45:33.036Z,100931.94
2023-01-02T00:48:01.050Z,100934.44
2023-01-02T00:50:28.697Z,100924.97
2023-01-02T00:52:56.611Z,100929.13
2023-01-02T00:55:24.353Z,100928.16
2023-01-02T00:57:52.801Z,100933.59
2023-01-02T01:00:24.122Z,100937.84
2023-01-02T01:02:57.367Z,100935.88
2023-01-02T01:05:29.583Z,100934.75
2023-01-02T01:07:58.150Z,100938.19
2023-01-02T01:10:26.887Z,100929.53
2023-01-02T01:12:54.914Z,100930.25
2023-01-02T01:15:22.579Z,100939.91
2023-01-02T01:17:50.483Z,100938.19
2023-01-02T01:20:18.278Z,100944.16
2023-01-02T01:22:46.228Z,100935.41
2023-01-02T01:25:14.006Z,100929.28
2023-01-02T01:27:42.019Z,100937.16
2023-01-02T01:30:10.236Z,100929.13
2023-01-02T01:32:38.213Z,100938.91
2023-01-02T01:35:07.200Z,100933.47
2023-01-02T01:37:35.206Z,100931.63
2023-01-02T01:40:02.918Z,100923.75
2023-01-02T01:42:35.443Z,100924.34
2023-01-02T01:45:03.759Z,100920.72
2023-01-02T01:47:53.606Z,100911.44
2023-01-02T01:50:33.755Z,100912.53
2023-01-02T01:53:08.477Z,100901.19
2023-01-02T01:55:49.674Z,100901.13
2023-01-02T01:58:31.139Z,100897.94
2023-01-02T02:00:59.537Z,100895.31
2023-01-02T02:03:30.892Z,100894.47
2023-01-02T02:05:59.826Z,100893.41
2023-01-02T02:08:31.171Z,100898.06
2023-01-02T02:11:00.620Z,100887.44
2023-01-02T02:13:32.131Z,100879.88
2023-01-02T02:16:18.098Z,100874.84
2023-01-02T02:19:21.085Z,100861.91
2023-01-02T02:22:31.019Z,100880.94
2023-01-02T02:25:36.199Z,100874.50
2023-01-02T02:28:31.633Z,100880.94
2023-01-02T02:31:20.497Z,100874.22
2023-01-02T02:34:02.517Z,100890.25
2023-01-02T02:37:25.923Z,100894.75
2023-01-02T02:40:18.383Z,100887.03
2023-01-02T02:43:00.657Z,100887.66
2023-01-02T02:45:46.705Z,100892.91
2023-01-02T02:48:47.485Z,100885.69
2023-01-02T02:51:39.981Z,100882.38
2023-01-02T02:54:27.358Z,100885.25
2023-01-02T02:56:56.481Z,100897.25
2023-01-02T02:59:24.656Z,100898.34
2023-01-02T03:01:52.524Z,100894.66
2023-01-02T03:04:22.468Z,100904.69
2023-01-02T03:07:13.952Z,100903.13
2023-01-02T03:10:00.406Z,100897.13
2023-01-02T03:13:09.118Z,100893.34
2023-01-02T03:15:47.285Z,100898.72
2023-01-02T03:18:20.669Z,100898.41
2023-01-02T03:21:25.319Z,100888.59
2023-01-02T03:24:00.782Z,100873.97
2023-01-02T03:26:31.870Z,100880.22
2023-01-02T03:29:06.560Z,100886.63
2023-01-02T03:31:39.518Z,100892.78
2023-01-02T03:34:16.874Z,100900.50
2023-01-02T03:36:48.659Z,100897.06
2023-01-02T03:39:19.781Z,100895.06
2023-01-02T03:42:18.104Z,100886.31
2023-01-02T03:44:57.608Z,100889.78
2023-01-02T03:47:37.494Z,100889.00
2023-01-02T03:50:21.816Z,100880.63
2023-01-02T03:52:49.829Z,100873.56
2023-01-02T03:55:18.012Z,100879.38
2023-01-02T03:58:13.625Z,100883.34
2023-01-02T04:01:06.564Z,100891.16
2023-01-02T04:04:07.903Z,100886.09
2023-01-02T04:06:41.001Z,100887.88
2023-01-02T04:09:13.958Z,100880.94
2023-01-02T04:11:46.811Z,100882.72
2023-01-02T04:14:20.631Z,100881.69
2023-01-02T04:16:51.150Z,100883.47
2023-01-02T04:19:44.325Z,100883.47
2023-01-02T04:22:25.832Z,100885.25
2023-01-02T04:25:10.248Z,100880.63
2023-01-02T04:27:44.993Z,100883.28
2023-01-02T04:30:13.022Z,100899.09
2023-01-02T04:32:45.390Z,100906.25
2023-01-02T04:35:20.848Z,100903.94
2023-01-02T04:37:49.071Z,100915.34
2023-01-02T04:40:29.830Z,100914.28
2023-01-02T04:42:57.726Z,100927.28
2023-01-02T04:45:25.849Z,100911.63
2023-01-02T04:47:53.497Z,100911.22
2023-01-02T04:50:21.373Z,100902.72
2023-01-02T04:52:49.023Z,100912.28
2023-01-02T04:55:17.029Z,100903.59
2023-01-02T04:57:44.614Z,100895.66
2023-01-02T05:00:12.964Z,100893.00
2023-01-02T05:02:41.615Z,100897.25
2023-01-02T05:05:10.690Z,100893.00
2023-01-02T05:07:39.217Z,100894.00
2023-01-02T05:10:09.279Z,100876.81
2023-01-02T05:12:39.125Z,100871.78
2023-01-02T05:15:09.751Z,100863.88
2023-01-02T05:17:39.056Z,100865.72
2023-01-02T05:20:10.212Z,100861.22
2023-01-02T05:23:01.274Z,100851.34
2023-01-02T05:25:33.930Z,100859.66
2023-01-02T05:28:03.012Z,100861.69
2023-01-02T05:30:31.282Z,100855.59
2023-01-02T05:32:58.956Z,100847.38
2023-01-02T05:35:32.155Z,100835.28
2023-01-02T05:38:01.198Z,100823.91
2023-01-02T05:40:29.091Z,100817.84
2023-01-02T05:42:57.640Z,100825.00
2023-01-02T05:45:26.779Z,100816.41
2023-01-02T05:47:54.455Z,100816.09
2023-01-02T05:50:22.388Z,100820.72
2023-01-02T05:52:50.068Z,100817.25
2023-01-02T05:55:18.113Z,100815.47
2023-01-02T05:57:45.765Z,100814.63
2023-01-02T06:00:14.284Z,100805.84
2023-01-02T06:02:47.222Z,100807.63
2023-01-02T06:05:16.663Z,100814.56
2023-01-02T06:07:44.367Z,100820.03
2023-01-02T06:10:12.419Z,100825.59
2023-01-02T06:12:40.112Z,100836.22
2023-01-02T06:15:08.697Z,100829.53
2023-01-02T06:17:36.441Z,100829.16
2023-01-02T06:20:04.897Z,100826.09
2023-01-02T06:22:32.539Z,100821.22
2023-01-02T06:25:00.398Z,100825.06
2023-01-02T06:27:28.123Z,100825.81
2023-01-02T06:29:55.988Z,100815.31
2023-01-02T06:32:23.632Z,100822.44
2023-01-02T06:34:51.495Z,100820.56
2023-01-02T06:37:19.216Z,100815.66
2023-01-02T06:39:47.103Z,100823.03
2023-01-02T06:42:14.758Z,100814.53
2023-01-02T06:44:42.634Z,100822.97
2023-01-02T06:47:10.229Z,100818.72
2023-01-02T06:49:38.231Z,100807.34
2023-01-02T06:52:06.195Z,100811.81
2023-01-02T06:54:34.098Z,100810.16
2023-01-02T06:57:01.726Z,100809.50
2023-01-02T06:59:29.821Z,100802.25
2023-01-02T07:01:57.812Z,100803.94
2023-01-02T07:04:25.866Z,100813.34
2023-01-02T07:06:53.547Z,100801.25
2023-01-02T07:09:21.509Z,100802.88
2023-01-02T07:11:49.336Z,100802.09
2023-01-02T07:14:17.294Z,100814.97
2023-01-02T07:16:45.130Z,100807.94
2023-01-02T07:19:13.133Z,100805.19
2023-01-02T07:21:40.842Z,100803.97
2023-01-02T07:24:13.904Z,100800.13
2023-01-02T07:26:41.979Z,100794.72
2023-01-02T07:29:10.268Z,100784.97
2023-01-02T07:31:38.007Z,100787.56
2023-01-02T07:34:06.061Z,100779.41
2023-01-02T07:36:33.773Z,100771.19
2023-01-02T07:39:01.747Z,100781.38
2023-01-02T07:41:29.477Z,100777.88
2023-01-02T07:43:57.544Z,100779.50
2023-01-02T07:46:25.873Z,100781.16
2023-01-02T07:48:53.866Z,100775.16
2023-01-02T07:51:26.932Z,100783.50
2023-01-02T07:53:57.015Z,100782.03
2023-01-02T07:56:26.051Z,100778.94
2023-01-02T07:58:54.145Z,100776.44
2023-01-02T08:01:22.219Z,100756.38
2023-01-02T08:03:50.269Z,100747.66
2023-01-02T08:06:19.778Z,100757.91
2023-01-02T08:08:48.434Z,100759.66
2023-01-02T08:11:21.630Z,100755.06
2023-01-02T08:13:50.257Z,100762.22
2023-01-02T08:16:20.641Z,100763.94
2023-01-02T08:18:51.537Z,100765.41
2023-01-02T08:21:19.482Z,100762.53
2023-01-02T08:23:47.593Z,100761.25
2023-01-02T08:26:15.468Z,100762.00
2023-01-02T08:28:44.738Z,100770.31
2023-01-02T08:31:15.309Z,100778.69
2023-01-02T08:33:43.925Z,100761.81
2023-01-02T08:36:12.098Z,100768.06
2023-01-02T08:38:40.378Z,100774.91
2023-01-02T08:41:08.098Z,100783.69
2023-01-02T08:43:36.581Z,100776.75
2023-01-02T08:46:06.737Z,100772.91
2023-01-02T08:48:35.240Z,100770.69
2023-01-02T08:51:04.228Z,100766.97
2023-01-02T08:53:32.253Z,100759.66
2023-01-02T08:56:18.595Z,100748.97
2023-01-02T08:59:03.429Z,100750.53
2023-01-02T09:01:32.260Z,100749.88
2023-01-02T09:04:06.270Z,100749.16
2023-01-02T09:06:39.559Z,100736.94
2023-01-02T09:09:12.160Z,100745.59
2023-01-02T09:11:46.001Z,100744.28
2023-01-02T09:14:13.942Z,100739.25
2023-01-02T09:16:42.232Z,100739.28
2023-01-02T09:19:10.197Z,100735.34
2023-01-02T09:21:37.892Z,100738.13
2023-01-02T09:24:06.727Z,100734.41
2023-01-02T09:26:34.765Z,100732.06
2023-01-02T09:29:02.699Z,100730.44
2023-01-02T09:31:30.724Z,100741.75
2023-01-02T09:33:58.719Z,100726.06
2023-01-02T09:36:26.414Z,100720.66
2023-01-02T09:39:00.109Z,100721.47
2023-01-02T09:41:37.168Z,100727.09
2023-01-02T09:44:29.571Z,100731.81
2023-01-02T09:47:03.793Z,100726.69
2023-01-02T09:49:43.965Z,100731.31
2023-01-02T09:52:27.104Z,100715.72
2023-01-02T09:54:55.390Z,100719.75
2023-01-02T09:57:49.403Z,100717.22
2023-01-02T10:00:19.782Z,100718.38
2023-01-02T10:03:17.840Z,100712.66
2023-01-02T10:05:48.839Z,100705.34
2023-01-02T10:08:45.050Z,100708.59
2023-01-02T10:11:31.661Z,100695.34
2023-01-02T10:14:20.619Z,100687.50
2023-01-02T10:16:56.295Z,100693.81
2023-01-02T10:19:51.792Z,100692.34
2023-01-02T10:22:35.368Z,100703.66
2023-01-02T10:25:19.165Z,100705.88
2023-01-02T10:28:01.302Z,100698.47
2023-01-02T10:30:38.223Z,100705.28
2023-01-02T10:33:15.912Z,100689.91
2023-01-02T10:35:54.520Z,100691.44
2023-01-02T10:38:22.738Z,100686.56
2023-01-02T10:40:51.925Z,100678.94
2023-01-02T10:43:20.390Z,100678.50
2023-01-02T10:45:48.177Z,100671.31
2023-01-02T10:48:16.067Z,100667.84
2023-01-02T10:50:54.995Z,100670.75
2023-01-02T10:53:37.499Z,100660.22
2023-01-02T10:56:19.752Z,100668.91
2023-01-02T10:58:53.071Z,100657.88
2023-01-02T11:01:23.058Z,100664.63
2023-01-02T11:04:00.042Z,100647.97
2023-01-02T11:06:38.859Z,100647.00
2023-01-02T11:09:30.091Z,100650.00
2023-01-02T11:12:10.885Z,100649.25
2023-01-02T11:14:39.862Z,100648.81
2023-01-02T11:17:41.005Z,100645.19
2023-01-02T11:20:27.197Z,100644.22
2023-01-02T11:23:01.593Z,100614.78
2023-01-02T11:25:38.436Z,100625.03
2023-01-02T11:28:06.921Z,100624.00
2023-01-02T11:30:43.051Z,100618.31
2023-01-02T11:33:27.095Z,100622.00
2023-01-02T11:36:06.406Z,100625.66
2023-01-02T11:38:49.006Z,100631.75
2023-01-02T11:41:22.728Z,100631.66
2023-01-02T11:43:58.666Z,100637.38
2023-01-02T11:46:38.529Z,100642.81
2023-01-02T11:49:22.387Z,100626.91
2023-01-02T11:52:03.065Z,100625.19
2023-01-02T11:54:51.188Z,100627.66
2023-01-02T11:57:48.224Z,100621.16
2023-01-02T12:00:18.836Z,100619.56
2023-01-02T12:02:53.551Z,100609.91
2023-01-02T12:05:32.591Z,100610.41
2023-01-02T12:08:13.173Z,100608.97
2023-01-02T12:10:55.774Z,100605.50
2023-01-02T12:13:49.598Z,100597.72
2023-01-02T12:16:35.409Z,100603.44
2023-01-02T12:19:03.421Z,100596.31
2023-01-02T12:21:54.536Z,100602.47
2023-01-02T12:24:28.643Z,100609.53
2023-01-02T12:27:05.010Z,100609.53
2023-01-02T12:29:51.057Z,100595.38
2023-01-02T12:32:44.340Z,100607.47
2023-01-02T12:35:18.066Z,100600.63
2023-01-02T12:37:55.091Z,100595.38
2023-01-02T12:40:45.183Z,100583.41
2023-01-02T12:43:21.813Z,100588.16
2023-01-02T12:46:11.707Z,100586.44
2023-01-02T12:49:04.686Z,100573.78
2023-01-02T12:51:49.422Z,100593.19
2023-01-02T12:54:18.820Z,100585.13
2023-01-02T12:57:29.187Z,100571.25
2023-01-02T13:00:20.964Z,100580.72
2023-01-02T13:03:25.381Z,100576.56
2023-01-02T13:06:44.397Z,100583.47
2023-01-02T13:09:22.412Z,100572.41
2023-01-02T13:12:05.638Z,100577.13
2023-01-02T13:14:54.906Z,100572.19
2023-01-02T13:17:50.238Z,100569.13
2023-01-02T13:20:39.147Z,100557.72
2023-01-02T13:23:29.796Z,100561.25
2023-01-02T13:26:11.019Z,100559.59
2023-01-02T13:28:42.635Z,100555.16
2023-01-02T13:31:44.776Z,100557.38
2023-01-02T13:34:08.812Z,100555.22
2023-01-02T13:36:44.806Z,100561.66
2023-01-02T13:39:32.540Z,100562.19
2023-01-02T13:42:22.829Z,100556.97
2023-01-02T13:44:57.116Z,100557.59
2023-01-02T13:47:34.572Z,100553.50
2023-01-02T13:50:13.007Z,100536.69
2023-01-02T13:52:54.019Z,100543.31
2023-01-02T13:55:22.160Z,100544.97
2023-01-02T13:58:12.781Z,100546.78
2023-01-02T14:00:43.703Z,100547.13
2023-01-02T14:03:23.296Z,100547.63
2023-01-02T14:05:59.286Z,100547.88
2023-01-02T14:08:32.934Z,100559.38
2023-01-02T14:11:19.798Z,100549.34
2023-01-02T14:13:51.554Z,100548.88
2023-01-02T14:16:22.302Z,100554.53
2023-01-02T14:19:18.165Z,100552.13
2023-01-02T14:22:04.232Z,100557.97
2023-01-02T14:24:51.313Z,100555.75
2023-01-02T14:27:31.371Z,100554.03
2023-01-02T14:30:13.162Z,100551.47
2023-01-02T14:32:44.398Z,100552.22
2023-01-02T14:35:15.607Z,100546.38
2023-01-02T14:37:48.274Z,100544.50
2023-01-02T14:40:41.371Z,100534.19
2023-01-02T14:43:31.451Z,100527.66
2023-01-02T14:46:10.465Z,100530.81
2023-01-02T14:48:58.527Z,100531.81
2023-01-02T14:51:29.339Z,100531.19
2023-01-02T14:54:15.735Z,100530.72
2023-01-02T14:56:48.672Z,100532.47
2023-01-02T14:59:25.714Z,100520.81
2023-01-02T15:01:58.834Z,100522.38
2023-01-02T15:04:41.337Z,100529.56
2023-01-02T15:07:21.331Z,100523.75
2023-01-02T15:09:57.263Z,100514.25
2023-01-02T15:12:46.589Z,100528.84
2023-01-02T15:15:23.505Z,100531.16
2023-01-02T15:17:52.580Z,100499.44
2023-01-02T15:20:28.074Z,100518.75
2023-01-02T15:22:57.289Z,100529.34
2023-01-02T15:25:37.381Z,100546.94
2023-01-02T15:28:23.038Z,100546.72
2023-01-02T15:31:11.297Z,100541.03
2023-01-02T15:33:39.701Z,100528.84
2023-01-02T15:36:14.450Z,100534.75
2023-01-02T15:38:42.925Z,100539.50
2023-01-02T15:41:18.578Z,100545.56
2023-01-02T15:44:06.467Z,100539.72
2023-01-02T15:46:34.596Z,100543.22
2023-01-02T15:49:04.113Z,100557.28
2023-01-02T15:51:41.142Z,100547.94
2023-01-02T15:54:18.603Z,100549.63
2023-01-02T15:56:46.478Z,100557.44
2023-01-02T15:59:29.369Z,100560.03
2023-01-02T16:01:57.456Z,100552.53
2023-01-02T16:04:34.004Z,100561.75
2023-01-02T16:07:14.316Z,100568.53
2023-01-02T16:09:53.621Z,100551.94
2023-01-02T16:12:23.443Z,100548.59
2023-01-02T16:14:55.846Z,100545.97
2023-01-02T16:17:39.309Z,100541.34
2023-01-02T16:20:21.017Z,100544.19
2023-01-02T16:22:52.003Z,100541.53
2023-01-02T16:25:33.024Z,100540.75
2023-01-02T16:28:35.329Z,100535.59
2023-01-02T16:31:14.639Z,100527.25
2023-01-02T16:33:43.660Z,100523.34
2023-01-02T16:36:24.755Z,100512.88
2023-01-02T16:39:01.477Z,100512.72
2023-01-02T16:41:37.197Z,100511.25
2023-01-02T16:44:14.555Z,100521.63
2023-01-02T16:46:44.367Z,100525.19
2023-01-02T16:49:17.960Z,100522.34
2023-01-02T16:51:47.902Z,100507.56
2023-01-02T16:54:17.279Z,100502.25
2023-01-02T16:56:45.520Z,100498.81
2023-01-02T16:59:13.175Z,100499.91
2023-01-02T17:01:41.368Z,100508.50
2023-01-02T17:04:11.796Z,100496.16
2023-01-02T17:06:39.732Z,100497.19
2023-01-02T17:09:07.438Z,100489.97
2023-01-02T17:11:37.257Z,100483.03
2023-01-02T17:14:04.923Z,100487.59
2023-01-02T17:16:32.866Z,100486.22
2023-01-02T17:19:00.619Z,100501.09
2023-01-02T17:21:32.674Z,100507.97
2023-01-02T17:24:00.723Z,100521.38
2023-01-02T17:26:28.804Z,100522.34
2023-01-02T17:28:56.461Z,100512.28
2023-01-02T17:31:26.197Z,100507.34
2023-01-02T17:33:54.314Z,100505.84
2023-01-02T17:36:23.199Z,100499.81
2023-01-02T17:38:50.836Z,100492.59
2023-01-02T17:41:19.002Z,100499.09
2023-01-02T17:44:01.165Z,100488.91
2023-01-02T17:47:04.383Z,100487.13
2023-01-02T17:49:20.952Z,100491.19
2023-01-02T17:51:48.950Z,100503.03
2023-01-02T17:54:16.954Z,100501.16
2023-01-02T17:56:45.091Z,100499.78
2023-01-02T17:59:14.032Z,100493.88
2023-01-02T18:01:42.658Z,100502.69
2023-01-02T18:04:10.344Z,100494.78
2023-01-02T18:06:38.584Z,100492.72
2023-01-02T18:09:07.229Z,100503.91
2023-01-02T18:11:35.560Z,100512.13
2023-01-02T18:14:09.710Z,100515.66
2023-01-02T18:16:43.112Z,100512.22
2023-01-02T18:19:15.300Z,100512.31
2023-01-02T18:21:44.988Z,100506.50
2023-01-02T18:24:24.157Z,100515.22
2023-01-02T18:27:05.599Z,100500.53
2023-01-02T18:29:33.250Z,100509.38
2023-01-02T18:32:03.118Z,100504.34
2023-01-02T18:34:54.722Z,100510.88
2023-01-02T18:37:30.149Z,100502.59
2023-01-02T18:40:00.621Z,100511.25
2023-01-02T18:42:33.571Z,100514.56
2023-01-02T18:45:01.584Z,100499.16
2023-01-02T18:47:32.846Z,100499.41
2023-01-02T18:50:13.294Z,100496.59
2023-01-02T18:52:44.547Z,100497.38
2023-01-02T18:55:12.204Z,100499.28
2023-01-02T18:57:49.258Z,100497.59
2023-01-02T19:00:32.795Z,100485.63
2023-01-02T19:03:04.369Z,100485.88
2023-01-02T19:05:37.075Z,100490.00
2023-01-02T19:08:20.063Z,100486.13
2023-01-02T19:10:51.351Z,100490.75
2023-01-02T19:13:33.509Z,100485.63
2023-01-02T19:16:04.154Z,100489.13
2023-01-02T19:18:44.485Z,100481.50
2023-01-02T19:21:28.331Z,100482.19
2023-01-02T19:24:00.443Z,100468.22
2023-01-02T19:26:31.161Z,100478.97
2023-01-02T19:29:11.356Z,100475.66
2023-01-02T19:32:17.178Z,100479.03
2023-01-02T19:34:48.224Z,100471.94
2023-01-02T19:37:38.805Z,100470.16
2023-01-02T19:40:19.461Z,100480.75
2023-01-02T19:42:51.886Z,100479.09
2023-01-02T19:45:25.197Z,100489.47
2023-01-02T19:47:53.793Z,100486.81
2023-01-02T19:50:25.285Z,100486.88
2023-01-02T19:52:53.208Z,100492.75
2023-01-02T19:55:21.580Z,100487.19
2023-01-02T19:57:49.539Z,100484.72
2023-01-02T20:00:21.438Z,100480.41
2023-01-02T20:02:51.383Z,100492.69
2023-01-02T20:05:22.642Z,100481.22
2023-01-02T20:07:52.633Z,100483.63
2023-01-02T20:10:22.045Z,100495.59
2023-01-02T20:12:50.102Z,100504.16
2023-01-02T20:15:23.356Z,100509.47
2023-01-02T20:17:52.329Z,100505.56
2023-01-02T20:20:22.846Z,100503.88
2023-01-02T20:22:52.087Z,100502.13
2023-01-02T20:25:24.278Z,100501.94
2023-01-02T20:27:54.107Z,100504.28
2023-01-02T20:30:24.971Z,100505.22
2023-01-02T20:32:55.868Z,100500.00
2023-01-02T20:35:24.180Z,100508.66
2023-01-02T20:37:51.916Z,100515.41
2023-01-02T20:40:19.971Z,100512.16
2023-01-02T20:42:48.174Z,100500.66
2023-01-02T20:45:16.188Z,100513.00
2023-01-02T20:47:43.899Z,100511.91
2023-01-02T20:50:12.056Z,100522.41
2023-01-02T20:52:39.737Z,100515.41
2023-01-02T20:55:08.127Z,100517.03
2023-01-02T20:57:35.820Z,100506.56
2023-01-02T21:00:10.351Z,100509.09
2023-01-02T21:02:38.304Z,100527.25
2023-01-02T21:05:07.100Z,100521.97
2023-01-02T21:07:34.813Z,100512.38
2023-01-02T21:10:02.884Z,100511.44
2023-01-02T21:12:49.162Z,100509.88
2023-01-02T21:15:35.839Z,100502.84
2023-01-02T21:18:03.771Z,100507.25
2023-01-02T21:20:31.638Z,100521.19
2023-01-02T21:22:59.269Z,100515.91
2023-01-02T21:25:27.242Z,100517.19
2023-01-02T21:27:54.971Z,100520.69
2023-01-02T21:30:22.971Z,100520.47
2023-01-02T21:32:50.668Z,100537.16
2023-01-02T21:35:18.905Z,100530.31
2023-01-02T21:37:46.690Z,100532.25
2023-01-02T21:40:14.781Z,100523.69
2023-01-02T21:42:44.820Z,100530.06
2023-01-02T21:45:13.432Z,100529.09
2023-01-02T21:47:41.169Z,100520.69
2023-01-02T21:50:09.931Z,100515.47
2023-01-02T21:52:37.664Z,100520.44
2023-01-02T21:55:06.400Z,100527.22
2023-01-02T21:58:03.223Z,100533.19
2023-01-02T22:00:25.204Z,100524.88
2023-01-02T22:02:53.471Z,100521.41
2023-01-02T22:05:22.863Z,100516.81
2023-01-02T22:07:50.638Z,100518.38
2023-01-02T22:10:18.689Z,100525.22
2023-01-02T22:12:46.392Z,100513.66
2023-01-02T22:15:14.293Z,100509.03
2023-01-02T22:17:42.830Z,100505.63
2023-01-02T22:20:11.556Z,100511.66
2023-01-02T22:22:39.207Z,100512.47
2023-01-02T22:25:08.036Z,100510.69
2023-01-02T22:27:35.947Z,100511.66
2023-01-02T22:30:24.782Z,100513.97
2023-01-02T22:32:52.581Z,100523.00
2023-01-02T22:35:20.568Z,100529.16
2023-01-02T22:37:48.408Z,100531.94
2023-01-02T22:40:16.540Z,100535.53
2023-01-02T22:43:10.119Z,100537.31
2023-01-02T22:45:50.056Z,100539.94
2023-01-02T22:48:25.026Z,100543.59
2023-01-02T22:50:57.136Z,100547.25
2023-01-02T22:53:30.407Z,100537.91
2023-01-02T22:55:59.980Z,100524.22
2023-01-02T22:58:28.437Z,100535.44
2023-01-02T23:01:13.185Z,100547.47
2023-01-02T23:03:42.953Z,100549.25
2023-01-02T23:06:11.204Z,100546.59
2023-01-02T23:08:39.307Z,100545.03
2023-01-02T23:11:08.108Z,100547.63
2023-01-02T23:13:36.990Z,100543.22
2023-01-02T23:16:24.334Z,100550.03
2023-01-02T23:19:10.756Z,100552.16
2023-01-02T23:21:40.201Z,100559.38
2023-01-02T23:24:08.683Z,100554.19
2023-01-02T23:26:47.586Z,100567.19
2023-01-02T23:29:16.151Z,100561.75
2023-01-02T23:31:48.599Z,100550.38
2023-01-02T23:34:19.426Z,100551.03
2023-01-02T23:36:47.699Z,100552.59
2023-01-02T23:39:17.301Z,100556.81
2023-01-02T23:41:46.909Z,100563.69
2023-01-02T23:44:15.626Z,100562.22
2023-01-02T23:46:44.016Z,100562.13
2023-01-02T23:49:12.486Z,100559.47
2023-01-02T23:51:41.247Z,100567.34
2023-01-02T23:54:10.868Z,100559.69
2023-01-02T23:56:40.627Z,100557.91
2023-01-02T23:59:11.156Z,100551.53
